sensor_id;sensor_type;location;lat;lon;timestamp;P1;durP1;ratioP1;P2;durP2;ratioP2
67090;SDS011;54007;55.818;49.058;2023-03-20T09:48:57;19.87;;;8.00;;
67090;SDS011;54007;55.818;49.058;2023-03-20T09:53:52;16.30;;;8.05;;
67090;SDS011;54007;55.818;49.058;2023-03-20T09:56:14;19.30;;;8.33;;
67090;SDS011;54007;55.818;49.058;2023-03-20T09:58:39;17.07;;;7.43;;
67090;SDS011;54007;55.818;49.058;2023-03-20T10:01:04;17.00;;;7.30;;
67090;SDS011;54007;55.818;49.058;2023-03-20T10:04:06;19.70;;;8.90;;
67090;SDS011;54007;55.818;49.058;2023-03-20T10:06:06;18.20;;;7.83;;
67090;SDS011;54007;55.818;49.058;2023-03-20T10:08:36;21.02;;;7.97;;
67090;SDS011;54007;55.818;49.058;2023-03-20T10:18:44;19.80;;;8.43;;
67090;SDS011;54007;55.818;49.058;2023-03-20T10:21:16;18.37;;;8.45;;
67090;SDS011;54007;55.818;49.058;2023-03-20T10:26:17;17.87;;;8.30;;
67090;SDS011;54007;55.818;49.058;2023-03-20T10:28:47;18.67;;;8.58;;
67090;SDS011;54007;55.818;49.058;2023-03-20T10:31:18;19.10;;;8.25;;
67090;SDS011;54007;55.818;49.058;2023-03-20T10:38:51;18.73;;;8.18;;
67090;SDS011;54007;55.818;49.058;2023-03-20T10:41:18;19.07;;;8.15;;
67090;SDS011;54007;55.818;49.058;2023-03-20T10:43:40;17.02;;;7.92;;
67090;SDS011;54007;55.818;49.058;2023-03-20T10:48:48;16.77;;;7.45;;
67090;SDS011;54007;55.818;49.058;2023-03-20T10:51:19;16.62;;;7.05;;
67090;SDS011;54007;55.818;49.058;2023-03-20T10:56:14;16.23;;;7.00;;
67090;SDS011;54007;55.818;49.058;2023-03-20T10:58:38;16.45;;;6.75;;
67090;SDS011;54007;55.818;49.058;2023-03-20T11:01:04;15.08;;;6.95;;
67090;SDS011;54007;55.818;49.058;2023-03-20T11:03:33;16.40;;;7.03;;
67090;SDS011;54007;55.818;49.058;2023-03-20T11:06:10;17.82;;;7.20;;
67090;SDS011;54007;55.818;49.058;2023-03-20T11:08:38;17.00;;;6.90;;
67090;SDS011;54007;55.818;49.058;2023-03-20T11:11:00;17.93;;;6.53;;
67090;SDS011;54007;55.818;49.058;2023-03-20T11:13:29;13.90;;;6.60;;
67090;SDS011;54007;55.818;49.058;2023-03-20T11:15:54;16.32;;;7.78;;
67090;SDS011;54007;55.818;49.058;2023-03-20T11:18:20;16.57;;;8.00;;
67090;SDS011;54007;55.818;49.058;2023-03-20T11:20:53;15.43;;;6.83;;
67090;SDS011;54007;55.818;49.058;2023-03-20T11:23:18;15.78;;;7.40;;
67090;SDS011;54007;55.818;49.058;2023-03-20T11:25:45;15.70;;;7.50;;
67090;SDS011;54007;55.818;49.058;2023-03-20T11:31:00;16.65;;;6.80;;
67090;SDS011;54007;55.818;49.058;2023-03-20T11:33:24;15.23;;;6.92;;
67090;SDS011;54007;55.818;49.058;2023-03-20T11:35:48;17.97;;;7.13;;
67090;SDS011;54007;55.818;49.058;2023-03-20T11:38:19;16.20;;;6.78;;
67090;SDS011;54007;55.818;49.058;2023-03-20T11:40:43;15.58;;;7.05;;
67090;SDS011;54007;55.818;49.058;2023-03-20T11:43:10;14.23;;;6.83;;
67090;SDS011;54007;55.818;49.058;2023-03-20T11:45:35;16.35;;;6.78;;
67090;SDS011;54007;55.818;49.058;2023-03-20T11:48:00;14.87;;;6.60;;
67090;SDS011;54007;55.818;49.058;2023-03-20T11:50:30;15.43;;;6.80;;
67090;SDS011;54007;55.818;49.058;2023-03-20T11:52:52;15.93;;;7.65;;
67090;SDS011;54007;55.818;49.058;2023-03-20T11:55:26;17.30;;;7.40;;
67090;SDS011;54007;55.818;49.058;2023-03-20T11:57:49;16.45;;;6.97;;
67090;SDS011;54007;55.818;49.058;2023-03-20T12:00:17;16.12;;;6.90;;
67090;SDS011;54007;55.818;49.058;2023-03-20T12:02:41;17.32;;;7.40;;
67090;SDS011;54007;55.818;49.058;2023-03-20T12:07:51;15.05;;;6.85;;
67090;SDS011;54007;55.818;49.058;2023-03-20T12:10:17;15.28;;;6.75;;
67090;SDS011;54007;55.818;49.058;2023-03-20T12:15:30;17.52;;;7.37;;
67090;SDS011;54007;55.818;49.058;2023-03-20T12:17:56;17.42;;;7.22;;
67090;SDS011;54007;55.818;49.058;2023-03-20T12:20:27;18.77;;;7.87;;
67090;SDS011;54007;55.818;49.058;2023-03-20T12:23:02;16.73;;;7.05;;
67090;SDS011;54007;55.818;49.058;2023-03-20T12:25:26;17.65;;;6.95;;
67090;SDS011;54007;55.818;49.058;2023-03-20T12:27:54;20.45;;;8.28;;
67090;SDS011;54007;55.818;49.058;2023-03-20T12:33:06;19.02;;;8.45;;
67090;SDS011;54007;55.818;49.058;2023-03-20T12:35:32;18.37;;;7.03;;
67090;SDS011;54007;55.818;49.058;2023-03-20T12:37:57;18.33;;;7.70;;
67090;SDS011;54007;55.818;49.058;2023-03-20T12:40:36;19.50;;;6.65;;
67090;SDS011;54007;55.818;49.058;2023-03-20T12:43:02;16.87;;;6.80;;
67090;SDS011;54007;55.818;49.058;2023-03-20T12:45:32;20.97;;;7.70;;
67090;SDS011;54007;55.818;49.058;2023-03-20T12:48:03;16.90;;;6.87;;
67090;SDS011;54007;55.818;49.058;2023-03-20T12:50:30;16.07;;;6.87;;
67090;SDS011;54007;55.818;49.058;2023-03-20T12:58:30;17.87;;;6.93;;
67090;SDS011;54007;55.818;49.058;2023-03-20T13:03:45;16.40;;;6.87;;
67090;SDS011;54007;55.818;49.058;2023-03-20T13:09:00;19.50;;;6.85;;
67090;SDS011;54007;55.818;49.058;2023-03-20T13:16:50;19.62;;;7.20;;
67090;SDS011;54007;55.818;49.058;2023-03-20T13:19:24;20.40;;;7.25;;
67090;SDS011;54007;55.818;49.058;2023-03-20T13:21:54;17.12;;;6.78;;
67090;SDS011;54007;55.818;49.058;2023-03-20T13:24:29;18.67;;;6.77;;
67090;SDS011;54007;55.818;49.058;2023-03-20T13:29:37;17.12;;;7.30;;
67090;SDS011;54007;55.818;49.058;2023-03-20T13:37:28;19.73;;;7.80;;
67090;SDS011;54007;55.818;49.058;2023-03-20T13:42:20;16.87;;;7.40;;
67090;SDS011;54007;55.818;49.058;2023-03-20T13:44:45;19.20;;;8.03;;
67090;SDS011;54007;55.818;49.058;2023-03-20T13:47:11;18.48;;;7.58;;
67090;SDS011;54007;55.818;49.058;2023-03-20T13:49:38;22.13;;;8.05;;
67090;SDS011;54007;55.818;49.058;2023-03-20T13:52:05;17.27;;;7.63;;
67090;SDS011;54007;55.818;49.058;2023-03-20T14:04:45;20.97;;;8.88;;
67090;SDS011;54007;55.818;49.058;2023-03-20T14:09:36;23.18;;;8.73;;
67090;SDS011;54007;55.818;49.058;2023-03-20T14:12:06;25.95;;;10.50;;
67090;SDS011;54007;55.818;49.058;2023-03-20T14:14:28;20.40;;;9.27;;
67090;SDS011;54007;55.818;49.058;2023-03-20T14:17:28;25.12;;;9.08;;
67090;SDS011;54007;55.818;49.058;2023-03-20T14:19:25;25.27;;;10.48;;
67090;SDS011;54007;55.818;49.058;2023-03-20T14:21:54;22.50;;;10.47;;
67090;SDS011;54007;55.818;49.058;2023-03-20T14:24:17;28.17;;;11.88;;
67090;SDS011;54007;55.818;49.058;2023-03-20T14:26:45;21.87;;;8.78;;
67090;SDS011;54007;55.818;49.058;2023-03-20T14:31:35;18.17;;;7.72;;
67090;SDS011;54007;55.818;49.058;2023-03-20T14:34:07;21.27;;;8.50;;
67090;SDS011;54007;55.818;49.058;2023-03-20T14:36:49;27.75;;;9.13;;
67090;SDS011;54007;55.818;49.058;2023-03-20T14:39:32;27.90;;;8.20;;
67090;SDS011;54007;55.818;49.058;2023-03-20T14:47:15;26.50;;;8.10;;
67090;SDS011;54007;55.818;49.058;2023-03-20T14:54:50;23.05;;;8.33;;
67090;SDS011;54007;55.818;49.058;2023-03-20T14:57:18;29.40;;;8.83;;
67090;SDS011;54007;55.818;49.058;2023-03-20T14:59:43;22.30;;;8.98;;
67090;SDS011;54007;55.818;49.058;2023-03-20T15:02:33;31.73;;;12.65;;
67090;SDS011;54007;55.818;49.058;2023-03-20T15:04:36;38.70;;;16.77;;
67090;SDS011;54007;55.818;49.058;2023-03-20T15:07:02;41.95;;;16.23;;
67090;SDS011;54007;55.818;49.058;2023-03-20T15:09:27;41.33;;;16.60;;
67090;SDS011;54007;55.818;49.058;2023-03-20T15:11:52;39.90;;;15.72;;
67090;SDS011;54007;55.818;49.058;2023-03-20T15:14:22;32.75;;;13.83;;
67090;SDS011;54007;55.818;49.058;2023-03-20T15:16:46;39.50;;;15.17;;
67090;SDS011;54007;55.818;49.058;2023-03-20T15:19:18;29.55;;;12.78;;
67090;SDS011;54007;55.818;49.058;2023-03-20T15:21:45;31.68;;;12.18;;
67090;SDS011;54007;55.818;49.058;2023-03-20T15:24:20;27.32;;;11.95;;
67090;SDS011;54007;55.818;49.058;2023-03-20T15:26:42;29.07;;;12.00;;
67090;SDS011;54007;55.818;49.058;2023-03-20T15:29:09;26.40;;;10.28;;
67090;SDS011;54007;55.818;49.058;2023-03-20T15:31:34;22.52;;;9.28;;
67090;SDS011;54007;55.818;49.058;2023-03-20T15:33:59;21.93;;;9.00;;
67090;SDS011;54007;55.818;49.058;2023-03-20T15:36:26;26.48;;;9.75;;
67090;SDS011;54007;55.818;49.058;2023-03-20T15:38:51;32.20;;;14.83;;
67090;SDS011;54007;55.818;49.058;2023-03-20T15:41:30;29.77;;;12.60;;
67090;SDS011;54007;55.818;49.058;2023-03-20T15:43:52;31.30;;;12.05;;
67090;SDS011;54007;55.818;49.058;2023-03-20T15:46:17;30.90;;;12.33;;
67090;SDS011;54007;55.818;49.058;2023-03-20T15:48:49;28.85;;;11.12;;
67090;SDS011;54007;55.818;49.058;2023-03-20T15:51:16;27.50;;;11.73;;
67090;SDS011;54007;55.818;49.058;2023-03-20T15:53:41;31.23;;;13.07;;
67090;SDS011;54007;55.818;49.058;2023-03-20T15:56:07;39.60;;;14.03;;
67090;SDS011;54007;55.818;49.058;2023-03-20T15:58:33;36.23;;;13.05;;
67090;SDS011;54007;55.818;49.058;2023-03-20T16:00:59;31.27;;;12.20;;
67090;SDS011;54007;55.818;49.058;2023-03-20T16:03:24;29.63;;;11.95;;
67090;SDS011;54007;55.818;49.058;2023-03-20T16:05:50;30.97;;;13.33;;
67090;SDS011;54007;55.818;49.058;2023-03-20T16:10:58;40.60;;;15.25;;
67090;SDS011;54007;55.818;49.058;2023-03-20T16:13:20;36.23;;;15.75;;
67090;SDS011;54007;55.818;49.058;2023-03-20T16:15:46;41.20;;;14.93;;
67090;SDS011;54007;55.818;49.058;2023-03-20T16:18:13;35.48;;;15.32;;
67090;SDS011;54007;55.818;49.058;2023-03-20T16:20:39;41.00;;;16.50;;
67090;SDS011;54007;55.818;49.058;2023-03-20T16:23:04;44.55;;;17.95;;
67090;SDS011;54007;55.818;49.058;2023-03-20T16:25:30;46.20;;;19.07;;
67090;SDS011;54007;55.818;49.058;2023-03-20T16:27:55;49.37;;;19.70;;
67090;SDS011;54007;55.818;49.058;2023-03-20T16:30:22;45.88;;;20.75;;
67090;SDS011;54007;55.818;49.058;2023-03-20T16:32:48;51.03;;;22.03;;
67090;SDS011;54007;55.818;49.058;2023-03-20T16:35:17;49.13;;;21.25;;
67090;SDS011;54007;55.818;49.058;2023-03-20T16:37:42;46.48;;;19.70;;
67090;SDS011;54007;55.818;49.058;2023-03-20T16:40:12;46.67;;;19.43;;
67090;SDS011;54007;55.818;49.058;2023-03-20T16:42:36;47.13;;;19.30;;
67090;SDS011;54007;55.818;49.058;2023-03-20T16:45:03;41.30;;;19.07;;
67090;SDS011;54007;55.818;49.058;2023-03-20T16:47:34;42.43;;;17.00;;
67090;SDS011;54007;55.818;49.058;2023-03-20T16:51:00;39.67;;;16.48;;
67090;SDS011;54007;55.818;49.058;2023-03-20T16:52:35;39.50;;;15.78;;
67090;SDS011;54007;55.818;49.058;2023-03-20T16:55:00;42.45;;;15.70;;
67090;SDS011;54007;55.818;49.058;2023-03-20T16:57:26;40.93;;;14.40;;
67090;SDS011;54007;55.818;49.058;2023-03-20T16:59:52;40.83;;;15.13;;
67090;SDS011;54007;55.818;49.058;2023-03-20T17:02:21;39.47;;;14.37;;
67090;SDS011;54007;55.818;49.058;2023-03-20T17:04:46;36.95;;;14.05;;
67090;SDS011;54007;55.818;49.058;2023-03-20T17:07:16;39.85;;;15.20;;
67090;SDS011;54007;55.818;49.058;2023-03-20T17:09:52;38.13;;;13.65;;
67090;SDS011;54007;55.818;49.058;2023-03-20T17:12:13;32.60;;;11.90;;
67090;SDS011;54007;55.818;49.058;2023-03-20T17:14:39;32.95;;;12.10;;
67090;SDS011;54007;55.818;49.058;2023-03-20T17:17:13;35.25;;;13.00;;
67090;SDS011;54007;55.818;49.058;2023-03-20T17:19:39;34.30;;;11.88;;
67090;SDS011;54007;55.818;49.058;2023-03-20T17:22:12;31.93;;;11.83;;
67090;SDS011;54007;55.818;49.058;2023-03-20T17:24:36;30.27;;;11.53;;
67090;SDS011;54007;55.818;49.058;2023-03-20T17:27:07;30.27;;;11.25;;
67090;SDS011;54007;55.818;49.058;2023-03-20T17:29:39;28.63;;;11.27;;
67090;SDS011;54007;55.818;49.058;2023-03-20T17:32:08;30.95;;;12.05;;
67090;SDS011;54007;55.818;49.058;2023-03-20T17:34:33;29.60;;;11.93;;
67090;SDS011;54007;55.818;49.058;2023-03-20T17:36:59;31.13;;;12.10;;
67090;SDS011;54007;55.818;49.058;2023-03-20T17:39:25;29.90;;;12.07;;
67090;SDS011;54007;55.818;49.058;2023-03-20T17:41:51;27.48;;;11.30;;
67090;SDS011;54007;55.818;49.058;2023-03-20T17:44:16;31.33;;;10.63;;
67090;SDS011;54007;55.818;49.058;2023-03-20T17:46:42;28.12;;;11.40;;
67090;SDS011;54007;55.818;49.058;2023-03-20T17:49:12;32.73;;;11.17;;
67090;SDS011;54007;55.818;49.058;2023-03-20T17:51:37;27.35;;;10.50;;
67090;SDS011;54007;55.818;49.058;2023-03-20T17:54:03;28.15;;;10.45;;
67090;SDS011;54007;55.818;49.058;2023-03-20T17:56:29;27.50;;;10.77;;
67090;SDS011;54007;55.818;49.058;2023-03-20T17:58:58;29.65;;;12.10;;
67090;SDS011;54007;55.818;49.058;2023-03-20T18:01:24;26.10;;;11.28;;
67090;SDS011;54007;55.818;49.058;2023-03-20T18:03:49;27.00;;;11.07;;
67090;SDS011;54007;55.818;49.058;2023-03-20T18:06:25;25.35;;;9.90;;
67090;SDS011;54007;55.818;49.058;2023-03-20T18:08:50;27.45;;;10.48;;
67090;SDS011;54007;55.818;49.058;2023-03-20T18:11:16;28.90;;;11.70;;
67090;SDS011;54007;55.818;49.058;2023-03-20T18:13:42;25.37;;;10.18;;
67090;SDS011;54007;55.818;49.058;2023-03-20T18:16:15;26.73;;;10.75;;
67090;SDS011;54007;55.818;49.058;2023-03-20T18:18:36;27.33;;;10.37;;
67090;SDS011;54007;55.818;49.058;2023-03-20T18:21:02;24.82;;;9.83;;
67090;SDS011;54007;55.818;49.058;2023-03-20T18:23:28;25.95;;;10.32;;
67090;SDS011;54007;55.818;49.058;2023-03-20T18:25:54;24.50;;;9.67;;
67090;SDS011;54007;55.818;49.058;2023-03-20T18:28:20;23.22;;;9.78;;
67090;SDS011;54007;55.818;49.058;2023-03-20T18:30:46;26.77;;;10.58;;
67090;SDS011;54007;55.818;49.058;2023-03-20T18:33:12;22.07;;;9.70;;
67090;SDS011;54007;55.818;49.058;2023-03-20T18:35:38;26.35;;;10.13;;
67090;SDS011;54007;55.818;49.058;2023-03-20T18:38:04;25.65;;;10.75;;
67090;SDS011;54007;55.818;49.058;2023-03-20T18:40:31;28.87;;;10.95;;
67090;SDS011;54007;55.818;49.058;2023-03-20T18:42:56;27.35;;;10.60;;
67090;SDS011;54007;55.818;49.058;2023-03-20T18:45:26;26.00;;;10.68;;
67090;SDS011;54007;55.818;49.058;2023-03-20T18:47:58;25.00;;;9.70;;
67090;SDS011;54007;55.818;49.058;2023-03-20T18:52:50;26.55;;;10.70;;
67090;SDS011;54007;55.818;49.058;2023-03-20T18:55:15;25.25;;;10.03;;
67090;SDS011;54007;55.818;49.058;2023-03-20T18:57:41;28.90;;;10.93;;
67090;SDS011;54007;55.818;49.058;2023-03-20T19:00:13;23.20;;;10.23;;
67090;SDS011;54007;55.818;49.058;2023-03-20T19:02:33;28.65;;;12.07;;
67090;SDS011;54007;55.818;49.058;2023-03-20T19:04:59;31.25;;;12.58;;
67090;SDS011;54007;55.818;49.058;2023-03-20T19:07:25;35.90;;;14.57;;
67090;SDS011;54007;55.818;49.058;2023-03-20T19:09:51;40.60;;;15.53;;
67090;SDS011;54007;55.818;49.058;2023-03-20T19:12:17;34.78;;;14.25;;
67090;SDS011;54007;55.818;49.058;2023-03-20T19:14:43;39.63;;;15.20;;
67090;SDS011;54007;55.818;49.058;2023-03-20T19:17:09;37.03;;;13.30;;
67090;SDS011;54007;55.818;49.058;2023-03-20T19:19:35;28.77;;;11.95;;
67090;SDS011;54007;55.818;49.058;2023-03-20T19:22:01;30.92;;;11.60;;
67090;SDS011;54007;55.818;49.058;2023-03-20T19:24:27;25.40;;;10.50;;
67090;SDS011;54007;55.818;49.058;2023-03-20T19:26:53;27.25;;;10.45;;
67090;SDS011;54007;55.818;49.058;2023-03-20T19:29:19;27.90;;;11.10;;
67090;SDS011;54007;55.818;49.058;2023-03-20T19:31:45;27.10;;;11.37;;
67090;SDS011;54007;55.818;49.058;2023-03-20T19:34:11;27.25;;;11.68;;
67090;SDS011;54007;55.818;49.058;2023-03-20T19:36:37;26.70;;;10.80;;
67090;SDS011;54007;55.818;49.058;2023-03-20T19:39:04;26.37;;;10.58;;
67090;SDS011;54007;55.818;49.058;2023-03-20T19:41:29;27.62;;;10.53;;
67090;SDS011;54007;55.818;49.058;2023-03-20T19:43:55;27.27;;;10.65;;
67090;SDS011;54007;55.818;49.058;2023-03-20T19:46:21;24.00;;;10.28;;
67090;SDS011;54007;55.818;49.058;2023-03-20T19:48:47;25.27;;;10.70;;
67090;SDS011;54007;55.818;49.058;2023-03-20T19:51:16;25.00;;;9.93;;
67090;SDS011;54007;55.818;49.058;2023-03-20T19:53:42;27.00;;;11.05;;
67090;SDS011;54007;55.818;49.058;2023-03-20T19:56:08;26.87;;;10.97;;
67090;SDS011;54007;55.818;49.058;2023-03-20T19:58:33;25.23;;;10.53;;
67090;SDS011;54007;55.818;49.058;2023-03-20T20:00:59;29.07;;;11.07;;
67090;SDS011;54007;55.818;49.058;2023-03-20T20:03:29;26.57;;;10.98;;
67090;SDS011;54007;55.818;49.058;2023-03-20T20:06:01;29.65;;;11.20;;
67090;SDS011;54007;55.818;49.058;2023-03-20T20:08:27;24.27;;;9.77;;
67090;SDS011;54007;55.818;49.058;2023-03-20T20:10:53;26.73;;;10.50;;
67090;SDS011;54007;55.818;49.058;2023-03-20T20:13:20;24.02;;;9.53;;
67090;SDS011;54007;55.818;49.058;2023-03-20T20:15:45;27.00;;;10.07;;
67090;SDS011;54007;55.818;49.058;2023-03-20T20:18:11;23.92;;;9.83;;
67090;SDS011;54007;55.818;49.058;2023-03-20T20:20:36;23.73;;;10.33;;
67090;SDS011;54007;55.818;49.058;2023-03-20T20:23:06;23.85;;;9.93;;
67090;SDS011;54007;55.818;49.058;2023-03-20T20:25:28;22.95;;;10.00;;
67090;SDS011;54007;55.818;49.058;2023-03-20T20:27:54;24.20;;;9.93;;
67090;SDS011;54007;55.818;49.058;2023-03-20T20:30:23;24.57;;;9.75;;
67090;SDS011;54007;55.818;49.058;2023-03-20T20:32:48;22.32;;;9.33;;
67090;SDS011;54007;55.818;49.058;2023-03-20T20:35:14;23.65;;;9.85;;
67090;SDS011;54007;55.818;49.058;2023-03-20T20:37:40;23.87;;;9.27;;
67090;SDS011;54007;55.818;49.058;2023-03-20T20:40:07;23.67;;;9.65;;
67090;SDS011;54007;55.818;49.058;2023-03-20T20:42:32;20.77;;;8.85;;
67090;SDS011;54007;55.818;49.058;2023-03-20T20:44:58;20.83;;;9.00;;
67090;SDS011;54007;55.818;49.058;2023-03-20T20:47:24;21.05;;;8.68;;
67090;SDS011;54007;55.818;49.058;2023-03-20T20:49:49;21.23;;;8.90;;
67090;SDS011;54007;55.818;49.058;2023-03-20T20:52:15;22.60;;;8.95;;
67090;SDS011;54007;55.818;49.058;2023-03-20T20:54:41;22.45;;;8.98;;
67090;SDS011;54007;55.818;49.058;2023-03-20T20:57:08;21.93;;;8.83;;
67090;SDS011;54007;55.818;49.058;2023-03-20T20:59:33;20.97;;;9.15;;
67090;SDS011;54007;55.818;49.058;2023-03-20T21:01:59;22.50;;;9.20;;
67090;SDS011;54007;55.818;49.058;2023-03-20T21:04:24;26.20;;;9.55;;
67090;SDS011;54007;55.818;49.058;2023-03-20T21:06:50;21.05;;;9.23;;
67090;SDS011;54007;55.818;49.058;2023-03-20T21:09:16;23.30;;;9.77;;
67090;SDS011;54007;55.818;49.058;2023-03-20T21:11:42;22.82;;;9.15;;
67090;SDS011;54007;55.818;49.058;2023-03-20T21:14:08;23.47;;;8.85;;
67090;SDS011;54007;55.818;49.058;2023-03-20T21:16:34;22.90;;;8.70;;
67090;SDS011;54007;55.818;49.058;2023-03-20T21:19:00;22.67;;;9.23;;
67090;SDS011;54007;55.818;49.058;2023-03-20T21:21:30;21.75;;;9.50;;
67090;SDS011;54007;55.818;49.058;2023-03-20T21:24:02;20.10;;;9.10;;
67090;SDS011;54007;55.818;49.058;2023-03-20T21:26:28;20.85;;;9.18;;
67090;SDS011;54007;55.818;49.058;2023-03-20T21:28:54;22.70;;;9.45;;
67090;SDS011;54007;55.818;49.058;2023-03-20T21:31:23;21.48;;;9.20;;
67090;SDS011;54007;55.818;49.058;2023-03-20T21:33:50;26.03;;;10.13;;
67090;SDS011;54007;55.818;49.058;2023-03-20T21:36:15;23.25;;;9.15;;
67090;SDS011;54007;55.818;49.058;2023-03-20T21:38:41;25.60;;;10.38;;
67090;SDS011;54007;55.818;49.058;2023-03-20T21:41:07;25.62;;;9.68;;
67090;SDS011;54007;55.818;49.058;2023-03-20T21:43:32;24.47;;;10.03;;
67090;SDS011;54007;55.818;49.058;2023-03-20T21:45:58;22.17;;;9.50;;
67090;SDS011;54007;55.818;49.058;2023-03-20T21:48:24;26.00;;;9.77;;
67090;SDS011;54007;55.818;49.058;2023-03-20T21:50:50;21.25;;;8.48;;
67090;SDS011;54007;55.818;49.058;2023-03-20T21:53:17;22.98;;;9.88;;
67090;SDS011;54007;55.818;49.058;2023-03-20T21:55:42;25.88;;;9.68;;
67090;SDS011;54007;55.818;49.058;2023-03-20T21:58:08;27.20;;;10.13;;
67090;SDS011;54007;55.818;49.058;2023-03-20T22:00:34;31.82;;;10.78;;
67090;SDS011;54007;55.818;49.058;2023-03-20T22:03:00;29.82;;;10.80;;
67090;SDS011;54007;55.818;49.058;2023-03-20T22:05:26;28.87;;;10.28;;
67090;SDS011;54007;55.818;49.058;2023-03-20T22:07:52;29.42;;;10.30;;
67090;SDS011;54007;55.818;49.058;2023-03-20T22:10:18;24.93;;;10.30;;
67090;SDS011;54007;55.818;49.058;2023-03-20T22:12:44;23.50;;;10.38;;
67090;SDS011;54007;55.818;49.058;2023-03-20T22:15:10;21.47;;;9.57;;
67090;SDS011;54007;55.818;49.058;2023-03-20T22:17:36;25.68;;;9.95;;
67090;SDS011;54007;55.818;49.058;2023-03-20T22:20:02;26.87;;;10.08;;
67090;SDS011;54007;55.818;49.058;2023-03-20T22:22:27;28.12;;;11.73;;
67090;SDS011;54007;55.818;49.058;2023-03-20T22:24:53;33.33;;;12.93;;
67090;SDS011;54007;55.818;49.058;2023-03-20T22:27:19;30.82;;;12.65;;
67090;SDS011;54007;55.818;49.058;2023-03-20T22:29:45;31.23;;;12.33;;
67090;SDS011;54007;55.818;49.058;2023-03-20T22:32:11;30.45;;;13.70;;
67090;SDS011;54007;55.818;49.058;2023-03-20T22:34:37;32.50;;;13.35;;
67090;SDS011;54007;55.818;49.058;2023-03-20T22:37:03;29.02;;;12.00;;
67090;SDS011;54007;55.818;49.058;2023-03-20T22:39:33;26.37;;;11.13;;
67090;SDS011;54007;55.818;49.058;2023-03-20T22:42:05;27.32;;;11.38;;
67090;SDS011;54007;55.818;49.058;2023-03-20T22:44:31;24.27;;;11.10;;
67090;SDS011;54007;55.818;49.058;2023-03-20T22:46:57;24.70;;;10.18;;
67090;SDS011;54007;55.818;49.058;2023-03-20T22:49:23;24.37;;;9.67;;
67090;SDS011;54007;55.818;49.058;2023-03-20T22:51:49;21.73;;;9.73;;
67090;SDS011;54007;55.818;49.058;2023-03-20T22:54:15;22.42;;;9.48;;
67090;SDS011;54007;55.818;49.058;2023-03-20T22:56:41;25.30;;;10.80;;
67090;SDS011;54007;55.818;49.058;2023-03-20T22:59:07;23.20;;;10.23;;
67090;SDS011;54007;55.818;49.058;2023-03-20T23:01:33;26.30;;;11.40;;
67090;SDS011;54007;55.818;49.058;2023-03-20T23:03:59;26.37;;;11.07;;
67090;SDS011;54007;55.818;49.058;2023-03-20T23:06:25;24.77;;;10.30;;
67090;SDS011;54007;55.818;49.058;2023-03-20T23:08:51;25.72;;;10.60;;
67090;SDS011;54007;55.818;49.058;2023-03-20T23:11:17;23.43;;;10.13;;
67090;SDS011;54007;55.818;49.058;2023-03-20T23:13:43;23.27;;;10.00;;
67090;SDS011;54007;55.818;49.058;2023-03-20T23:16:09;25.35;;;10.60;;
67090;SDS011;54007;55.818;49.058;2023-03-20T23:18:35;22.87;;;9.80;;
67090;SDS011;54007;55.818;49.058;2023-03-20T23:21:01;24.03;;;9.57;;
67090;SDS011;54007;55.818;49.058;2023-03-20T23:23:27;21.25;;;9.05;;
67090;SDS011;54007;55.818;49.058;2023-03-20T23:28:28;24.35;;;9.98;;
67090;SDS011;54007;55.818;49.058;2023-03-20T23:30:54;24.90;;;9.97;;
67090;SDS011;54007;55.818;49.058;2023-03-20T23:33:20;24.30;;;10.03;;
67090;SDS011;54007;55.818;49.058;2023-03-20T23:35:46;23.67;;;9.83;;
67090;SDS011;54007;55.818;49.058;2023-03-20T23:38:11;23.10;;;9.80;;
67090;SDS011;54007;55.818;49.058;2023-03-20T23:40:37;26.27;;;10.03;;
67090;SDS011;54007;55.818;49.058;2023-03-20T23:43:03;22.48;;;10.00;;
67090;SDS011;54007;55.818;49.058;2023-03-20T23:45:29;23.60;;;10.55;;
67090;SDS011;54007;55.818;49.058;2023-03-20T23:47:55;24.07;;;9.78;;
67090;SDS011;54007;55.818;49.058;2023-03-20T23:50:21;24.40;;;10.00;;
67090;SDS011;54007;55.818;49.058;2023-03-20T23:52:47;25.00;;;10.08;;
67090;SDS011;54007;55.818;49.058;2023-03-20T23:55:13;22.27;;;10.10;;
67090;SDS011;54007;55.818;49.058;2023-03-20T23:57:43;25.10;;;10.43;;
